createdAt,value
2019-04-11T00:01:47.809Z,58.07
2019-04-11T00:04:13.603Z,58.03
2019-04-11T00:06:42.012Z,58.16
2019-04-11T00:09:13.162Z,58.20
2019-04-11T00:11:42.423Z,58.16
2019-04-11T00:14:11.976Z,58.18
2019-04-11T00:16:41.511Z,58.24
2019-04-11T00:19:12.110Z,58.32
2019-04-11T00:21:39.668Z,58.28
2019-04-11T00:24:08.885Z,58.40
2019-04-11T00:26:38.251Z,58.35
2019-04-11T00:29:07.316Z,58.84
2019-04-11T00:31:36.892Z,58.84
2019-04-11T00:34:06.760Z,58.99
2019-04-11T00:36:34.932Z,58.99
2019-04-11T00:39:06.320Z,59.04
2019-04-11T00:41:35.518Z,58.97
2019-04-11T00:44:06.251Z,59.06
2019-04-11T00:46:34.298Z,59.07
2019-04-11T00:49:03.464Z,59.10
2019-04-11T00:51:32.676Z,58.98
2019-04-11T00:54:02.593Z,59.24
2019-04-11T00:56:31.070Z,59.53
2019-04-11T00:59:00.365Z,59.45
2019-04-11T01:01:29.607Z,59.53
2019-04-11T01:03:59.181Z,59.59
2019-04-11T01:06:28.058Z,59.66
2019-04-11T01:08:57.264Z,59.78
2019-04-11T01:11:26.524Z,59.67
2019-04-11T01:13:55.831Z,59.61
2019-04-11T01:16:39.374Z,59.88
2019-04-11T01:19:08.800Z,59.76
2019-04-11T01:21:37.870Z,59.66
2019-04-11T01:24:07.270Z,59.92
2019-04-11T01:26:37.196Z,59.92
2019-04-11T01:29:05.492Z,60.07
2019-04-11T01:31:35.939Z,60.13
2019-04-11T01:34:04.942Z,60.10
2019-04-11T01:36:35.252Z,60.05
2019-04-11T01:39:08.499Z,60.05
2019-04-11T01:41:38.388Z,60.09
2019-04-11T01:44:07.552Z,60.22
2019-04-11T01:46:35.835Z,60.33
2019-04-11T01:49:10.574Z,60.46
2019-04-11T01:51:40.100Z,60.36
2019-04-11T01:54:09.056Z,60.46
2019-04-11T01:56:39.147Z,60.66
2019-04-11T01:59:07.473Z,60.52
2019-04-11T02:01:56.928Z,60.51
2019-04-11T02:04:32.814Z,60.53
2019-04-11T02:07:02.513Z,60.55
2019-04-11T02:09:32.370Z,60.63
2019-04-11T02:12:01.582Z,60.61
2019-04-11T02:14:29.738Z,60.71
2019-04-11T02:16:59.309Z,60.94
2019-04-11T02:19:28.192Z,60.95
2019-04-11T02:22:10.418Z,60.95
2019-04-11T02:24:44.536Z,60.90
2019-04-11T02:27:21.350Z,61.02
2019-04-11T02:29:50.955Z,61.02
2019-04-11T02:32:21.282Z,61.20
2019-04-11T02:34:50.644Z,60.79
2019-04-11T02:37:19.689Z,61.76
2019-04-11T02:39:49.293Z,61.76
2019-04-11T02:42:16.950Z,61.14
2019-04-11T02:45:03.493Z,61.61
2019-04-11T02:47:20.230Z,61.61
2019-04-11T02:49:45.591Z,61.63
2019-04-11T02:52:15.207Z,61.61
2019-04-11T02:54:43.066Z,61.67
2019-04-11T02:57:13.931Z,61.79
2019-04-11T02:59:44.488Z,61.97
2019-04-11T03:02:13.025Z,61.85
2019-04-11T03:04:41.546Z,62.22
2019-04-11T03:07:09.923Z,62.23
2019-04-11T03:09:39.347Z,62.23
2019-04-11T03:12:09.364Z,62.06
2019-04-11T03:14:51.817Z,62.27
2019-04-11T03:17:14.145Z,62.27
2019-04-11T03:19:49.505Z,62.53
2019-04-11T03:22:05.564Z,62.41
2019-04-11T03:24:35.782Z,62.50
2019-04-11T03:27:04.817Z,62.41
2019-04-11T03:29:33.802Z,62.55
2019-04-11T03:35:23.201Z,62.63
2019-04-11T03:37:23.718Z,62.68
2019-04-11T03:39:54.308Z,62.60
2019-04-11T03:42:14.114Z,62.78
2019-04-11T03:44:35.214Z,62.69
2019-04-11T03:47:12.728Z,62.83
2019-04-11T03:49:35.586Z,63.13
2019-04-11T03:51:55.644Z,63.09
2019-04-11T03:54:25.269Z,63.09
2019-04-11T03:56:54.006Z,63.23
2019-04-11T03:59:23.767Z,63.60
2019-04-11T04:01:54.035Z,63.60
2019-04-11T04:04:22.288Z,63.24
2019-04-11T04:06:50.955Z,63.50
2019-04-11T04:09:20.869Z,63.50
2019-04-11T04:11:51.179Z,63.53
2019-04-11T04:14:47.226Z,63.49
2019-04-11T04:17:35.964Z,63.61
2019-04-11T04:20:33.202Z,63.74
2019-04-11T04:23:21.567Z,63.65
2019-04-11T04:25:51.663Z,63.65
2019-04-11T04:28:21.554Z,63.83
2019-04-11T04:30:49.443Z,63.92
2019-04-11T04:33:20.178Z,63.89
2019-04-11T04:35:49.198Z,64.11
2019-04-11T04:38:16.902Z,64.06
2019-04-11T04:41:00.355Z,64.14
2019-04-11T04:43:16.548Z,64.15
2019-04-11T04:46:06.605Z,64.33
2019-04-11T04:48:18.034Z,64.42
2019-04-11T04:50:44.824Z,64.49
2019-04-11T04:53:13.730Z,64.59
2019-04-11T04:55:43.606Z,64.50
2019-04-11T04:58:11.287Z,64.64
2019-04-11T05:00:40.484Z,64.58
2019-04-11T05:03:10.301Z,64.61
2019-04-11T05:05:39.015Z,64.49
2019-04-11T05:08:08.455Z,64.49
2019-04-11T05:10:38.154Z,64.43
2019-04-11T05:13:07.816Z,64.17
2019-04-11T05:15:36.572Z,64.14
2019-04-11T05:18:06.151Z,64.14
2019-04-11T05:20:36.524Z,63.54
2019-04-11T05:23:04.304Z,63.63
2019-04-11T05:25:32.826Z,63.36
2019-04-11T05:28:02.310Z,63.18
2019-04-11T05:30:31.514Z,63.15
2019-04-11T05:33:00.482Z,62.78
2019-04-11T05:35:29.949Z,62.99
2019-04-11T05:37:59.896Z,66.06
2019-04-11T05:40:28.243Z,64.26
2019-04-11T05:42:57.693Z,64.26
2019-04-11T05:45:26.778Z,66.02
2019-04-11T05:47:57.086Z,61.31
2019-04-11T05:50:36.110Z,60.72
2019-04-11T05:53:05.644Z,60.72
2019-04-11T05:55:43.120Z,58.47
2019-04-11T05:58:13.758Z,58.47
2019-04-11T06:00:57.509Z,58.93
2019-04-11T06:03:26.043Z,58.17
2019-04-11T06:06:10.909Z,59.04
2019-04-11T06:08:41.905Z,58.67
2019-04-11T06:11:50.361Z,58.67
2019-04-11T06:14:29.568Z,58.67
2019-04-11T06:17:02.448Z,59.07
2019-04-11T06:19:53.752Z,59.07
2019-04-11T06:22:23.517Z,58.99
2019-04-11T06:25:14.144Z,58.84
2019-04-11T06:28:02.048Z,58.76
2019-04-11T06:30:52.721Z,58.53
2019-04-11T06:33:36.421Z,57.74
2019-04-11T06:36:23.542Z,57.74
2019-04-11T06:38:59.383Z,56.86
2019-04-11T06:41:53.312Z,57.17
2019-04-11T06:44:30.105Z,57.17
2019-04-11T06:47:25.015Z,56.46
2019-04-11T06:50:13.200Z,56.50
2019-04-11T06:52:43.229Z,56.98
2019-04-11T06:55:24.668Z,59.95
2019-04-11T06:57:56.380Z,56.38
2019-04-11T07:00:25.264Z,54.84
2019-04-11T07:02:57.278Z,53.32
2019-04-11T07:05:27.405Z,52.05
2019-04-11T07:07:57.775Z,49.97
2019-04-11T07:10:31.625Z,51.09
2019-04-11T07:13:14.974Z,51.16
2019-04-11T07:15:47.022Z,50.60
2019-04-11T07:18:34.050Z,49.34
2019-04-11T07:21:08.570Z,48.76
2019-04-11T07:23:55.584Z,49.51
2019-04-11T07:26:43.905Z,50.05
2019-04-11T07:29:44.298Z,49.66
2019-04-11T07:32:22.247Z,50.19
2019-04-11T07:35:08.650Z,50.19
2019-04-11T07:37:49.339Z,50.35
2019-04-11T07:40:39.334Z,49.37
2019-04-11T07:43:33.559Z,49.17
2019-04-11T07:46:25.229Z,49.39
2019-04-11T07:48:59.361Z,48.29
2019-04-11T07:51:32.104Z,48.29
2019-04-11T07:54:04.870Z,47.56
2019-04-11T07:56:41.921Z,46.89
2019-04-11T07:59:19.514Z,45.02
2019-04-11T08:02:05.789Z,44.02
2019-04-11T08:04:53.220Z,43.05
2019-04-11T08:07:30.467Z,42.51
2019-04-11T08:10:03.412Z,41.70
2019-04-11T08:12:33.865Z,41.83
2019-04-11T08:15:19.857Z,41.29
2019-04-11T08:17:50.114Z,41.39
2019-04-11T08:20:26.256Z,42.33
2019-04-11T08:22:59.072Z,42.86
2019-04-11T08:25:47.448Z,43.28
2019-04-11T08:28:16.434Z,44.35
2019-04-11T08:30:53.006Z,45.06
2019-04-11T08:33:22.490Z,45.66
2019-04-11T08:36:11.562Z,45.55
2019-04-11T08:38:40.758Z,45.50
2019-04-11T08:41:23.222Z,44.13
2019-04-11T08:43:53.194Z,44.33
2019-04-11T08:46:25.359Z,43.99
2019-04-11T08:48:57.490Z,43.35
2019-04-11T08:51:27.448Z,41.21
2019-04-11T08:54:13.790Z,41.05
2019-04-11T08:56:43.261Z,40.03
2019-04-11T08:59:47.568Z,39.92
2019-04-11T09:02:28.955Z,38.16
2019-04-11T09:05:22.721Z,38.18
2019-04-11T09:07:58.095Z,38.01
2019-04-11T09:10:44.505Z,38.24
2019-04-11T09:13:23.493Z,37.76
2019-04-11T09:16:10.376Z,36.45
2019-04-11T09:18:39.788Z,36.45
2019-04-11T09:21:40.460Z,35.46
2019-04-11T09:24:32.534Z,35.54
2019-04-11T09:27:18.344Z,34.67
2019-04-11T09:29:52.439Z,32.51
2019-04-11T09:32:40.350Z,31.40
2019-04-11T09:35:16.490Z,31.46
2019-04-11T09:37:46.267Z,32.68
2019-04-11T09:40:34.008Z,31.20
2019-04-11T09:43:19.904Z,29.79
2019-04-11T09:46:20.074Z,29.84
2019-04-11T09:49:00.405Z,30.40
2019-04-11T09:51:52.036Z,30.44
2019-04-11T09:54:40.200Z,30.80
2019-04-11T09:57:34.848Z,31.85
2019-04-11T10:00:27.420Z,32.92
2019-04-11T10:02:58.658Z,31.61
2019-04-11T10:05:32.071Z,31.33
2019-04-11T10:08:27.702Z,31.88
2019-04-11T10:11:32.497Z,32.45
2019-04-11T10:14:11.676Z,32.80
2019-04-11T10:16:58.671Z,33.46
2019-04-11T10:19:38.430Z,35.42
2019-04-11T10:22:25.251Z,36.66
2019-04-11T10:25:07.249Z,37.19
2019-04-11T10:27:47.161Z,37.66
2019-04-11T10:30:34.562Z,37.64
2019-04-11T10:33:08.752Z,38.23
2019-04-11T10:36:03.053Z,37.75
2019-04-11T10:38:32.791Z,37.88
2019-04-11T10:41:09.268Z,38.09
2019-04-11T10:43:38.485Z,37.97
2019-04-11T10:46:27.112Z,38.48
2019-04-11T10:49:18.131Z,38.46
2019-04-11T10:52:02.791Z,38.78
2019-04-11T10:54:33.598Z,38.84
2019-04-11T10:57:25.661Z,38.54
2019-04-11T10:59:54.899Z,38.44
2019-04-11T11:02:42.056Z,37.45
2019-04-11T11:05:12.829Z,36.55
2019-04-11T11:07:44.590Z,36.47
2019-04-11T11:10:15.733Z,36.03
2019-04-11T11:12:57.209Z,35.44
2019-04-11T11:15:27.596Z,34.95
2019-04-11T11:18:38.211Z,35.17
2019-04-11T11:21:00.831Z,35.81
2019-04-11T11:23:45.073Z,35.63
2019-04-11T11:26:22.597Z,35.88
2019-04-11T11:29:07.057Z,33.26
2019-04-11T11:31:49.199Z,33.29
2019-04-11T11:34:33.215Z,33.04
2019-04-11T11:37:31.265Z,32.64
2019-04-11T11:40:25.898Z,32.10
2019-04-11T11:43:17.031Z,32.25
2019-04-11T11:46:08.368Z,31.80
2019-04-11T11:48:59.291Z,31.83
2019-04-11T11:51:52.521Z,32.29
2019-04-11T11:54:25.878Z,33.45
2019-04-11T11:56:58.118Z,34.34
2019-04-11T11:59:34.723Z,34.81
2019-04-11T12:02:10.683Z,34.22
2019-04-11T12:04:52.000Z,33.99
2019-04-11T12:07:23.102Z,34.14
2019-04-11T12:10:09.723Z,34.30
2019-04-11T12:12:48.920Z,33.92
2019-04-11T12:15:31.230Z,32.46
2019-04-11T12:18:21.650Z,32.58
2019-04-11T12:20:57.541Z,33.39
2019-04-11T12:23:53.024Z,34.22
2019-04-11T12:26:14.203Z,33.77
2019-04-11T12:29:03.984Z,33.63
2019-04-11T12:31:35.499Z,33.78
2019-04-11T12:34:16.435Z,34.56
2019-04-11T12:36:48.085Z,34.54
2019-04-11T12:39:33.871Z,34.68
2019-04-11T12:42:24.196Z,34.45
2019-04-11T12:45:11.479Z,34.48
2019-04-11T12:47:43.656Z,35.34
2019-04-11T12:50:32.083Z,35.95
2019-04-11T12:53:06.200Z,34.76
2019-04-11T12:56:06.701Z,34.94
2019-04-11T12:58:41.977Z,34.46
2019-04-11T13:01:29.095Z,34.19
2019-04-11T13:04:15.863Z,34.33
2019-04-11T13:07:02.953Z,34.18
2019-04-11T13:09:46.106Z,34.59
2019-04-11T13:12:21.529Z,34.66
2019-04-11T13:15:12.942Z,34.58
2019-04-11T13:17:45.315Z,34.06
2019-04-11T13:20:52.035Z,34.53
2019-04-11T13:23:32.247Z,35.14
2019-04-11T13:26:19.466Z,34.08
2019-04-11T13:28:52.849Z,33.27
2019-04-11T13:31:39.804Z,32.94
2019-04-11T13:34:11.258Z,34.25
2019-04-11T13:36:57.190Z,34.37
2019-04-11T13:39:26.419Z,34.88
2019-04-11T13:42:23.753Z,35.52
2019-04-11T13:44:53.054Z,35.93
2019-04-11T13:47:47.504Z,35.51
2019-04-11T13:50:17.759Z,36.12
2019-04-11T13:53:08.599Z,36.54
2019-04-11T13:55:42.113Z,37.20
2019-04-11T13:58:23.159Z,37.53
2019-04-11T14:00:53.661Z,37.71
2019-04-11T14:03:44.617Z,38.16
2019-04-11T14:06:24.606Z,38.31
2019-04-11T14:09:12.968Z,37.17
2019-04-11T14:11:47.739Z,36.78
2019-04-11T14:14:36.082Z,36.61
2019-04-11T14:17:13.251Z,37.00
2019-04-11T14:20:00.286Z,36.58
2019-04-11T14:22:33.675Z,36.17
2019-04-11T14:25:33.985Z,36.35
2019-04-11T14:28:03.213Z,36.84
2019-04-11T14:30:42.353Z,37.03
2019-04-11T14:33:11.575Z,37.05
2019-04-11T14:36:11.969Z,37.10
2019-04-11T14:38:47.662Z,36.24
2019-04-11T14:41:22.861Z,34.72
2019-04-11T14:43:56.567Z,34.61
2019-04-11T14:46:59.964Z,34.86
2019-04-11T14:49:29.178Z,34.91
2019-04-11T14:52:17.194Z,35.65
2019-04-11T14:54:49.237Z,35.88
2019-04-11T14:57:35.875Z,36.02
2019-04-11T15:00:12.891Z,36.20
2019-04-11T15:03:03.894Z,36.87
2019-04-11T15:05:38.087Z,37.31
2019-04-11T15:08:08.794Z,37.63
2019-04-11T15:11:18.463Z,37.90
2019-04-11T15:13:45.849Z,38.41
2019-04-11T15:16:30.992Z,38.49
2019-04-11T15:19:02.496Z,39.24
2019-04-11T15:21:49.646Z,39.23
2019-04-11T15:24:19.989Z,39.28
2019-04-11T15:27:01.393Z,38.84
2019-04-11T15:29:33.171Z,39.13
2019-04-11T15:32:16.657Z,38.66
2019-04-11T15:34:52.917Z,38.82
2019-04-11T15:37:51.580Z,38.83
2019-04-11T15:40:26.559Z,39.02
2019-04-11T15:43:13.371Z,39.33
2019-04-11T15:46:10.618Z,40.28
2019-04-11T15:49:01.717Z,39.69
2019-04-11T15:51:41.376Z,39.62
2019-04-11T15:54:18.368Z,39.76
2019-04-11T15:56:49.829Z,39.30
2019-04-11T15:59:54.338Z,39.42
2019-04-11T16:02:47.281Z,39.81
2019-04-11T16:05:41.227Z,39.83
2019-04-11T16:08:19.581Z,39.83
2019-04-11T16:10:55.155Z,39.67
2019-04-11T16:13:34.928Z,39.67
2019-04-11T16:16:11.341Z,40.00
2019-04-11T16:18:46.964Z,40.50
2019-04-11T16:21:18.725Z,40.28
2019-04-11T16:24:02.081Z,40.18
2019-04-11T16:26:40.969Z,40.05
2019-04-11T16:29:26.469Z,40.21
2019-04-11T16:31:57.127Z,40.15
2019-04-11T16:34:51.550Z,40.05
2019-04-11T16:37:18.445Z,40.05
2019-04-11T16:40:24.215Z,39.86
2019-04-11T16:43:00.385Z,39.83
2019-04-11T16:46:00.981Z,40.38
2019-04-11T16:48:30.197Z,40.90
2019-04-11T16:50:59.587Z,41.30
2019-04-11T16:53:28.796Z,41.13
2019-04-11T16:55:58.060Z,40.63
2019-04-11T16:58:27.288Z,40.65
2019-04-11T17:00:56.532Z,41.14
2019-04-11T17:03:25.817Z,41.15
2019-04-11T17:06:03.589Z,41.15
2019-04-11T17:08:39.973Z,41.07
2019-04-11T17:11:11.122Z,41.20
2019-04-11T17:13:40.390Z,41.50
2019-04-11T17:16:12.373Z,42.11
2019-04-11T17:18:41.575Z,42.11
2019-04-11T17:21:10.825Z,41.94
2019-04-11T17:23:40.033Z,41.91
2019-04-11T17:26:09.213Z,41.94
2019-04-11T17:28:38.437Z,41.85
2019-04-11T17:31:07.667Z,41.85
2019-04-11T17:33:36.867Z,42.05
2019-04-11T17:36:06.078Z,42.05
2019-04-11T17:38:37.114Z,41.98
2019-04-11T17:41:04.465Z,42.18
2019-04-11T17:43:33.670Z,42.05
2019-04-11T17:46:02.861Z,42.20
2019-04-11T17:48:32.093Z,42.35
2019-04-11T17:51:04.919Z,42.20
2019-04-11T17:53:30.575Z,42.63
2019-04-11T17:55:59.762Z,42.58
2019-04-11T17:58:29.046Z,42.96
2019-04-11T18:01:00.602Z,42.93
2019-04-11T18:03:29.420Z,43.12
2019-04-11T18:05:58.684Z,43.33
2019-04-11T18:08:27.927Z,43.41
2019-04-11T18:10:57.125Z,43.52
2019-04-11T18:13:30.633Z,43.72
2019-04-11T18:15:55.687Z,44.04
2019-04-11T18:18:24.992Z,44.32
2019-04-11T18:20:54.216Z,44.31
2019-04-11T18:23:23.438Z,44.54
2019-04-11T18:25:52.669Z,44.73
2019-04-11T18:28:22.489Z,44.68
2019-04-11T18:30:53.807Z,44.78
2019-04-11T18:33:20.316Z,45.08
2019-04-11T18:35:49.516Z,45.19
2019-04-11T18:38:18.743Z,45.25
2019-04-11T18:40:47.991Z,45.26
2019-04-11T18:43:17.179Z,45.64
2019-04-11T18:45:46.394Z,45.67
2019-04-11T18:48:15.601Z,45.76
2019-04-11T18:50:44.828Z,45.74
2019-04-11T18:53:14.006Z,45.75
2019-04-11T18:55:43.299Z,46.01
2019-04-11T18:58:12.495Z,46.01
2019-04-11T19:00:44.615Z,46.42
2019-04-11T19:03:14.458Z,46.42
2019-04-11T19:05:43.658Z,46.49
2019-04-11T19:08:13.115Z,46.55
2019-04-11T19:10:44.908Z,46.77
2019-04-11T19:13:10.827Z,47.03
2019-04-11T19:15:40.073Z,47.03
2019-04-11T19:18:09.303Z,47.77
2019-04-11T19:20:38.559Z,48.01
2019-04-11T19:23:08.513Z,47.69
2019-04-11T19:25:37.133Z,47.69
2019-04-11T19:28:06.354Z,47.81
2019-04-11T19:30:35.586Z,47.62
2019-04-11T19:33:04.839Z,48.19
2019-04-11T19:35:34.060Z,48.19
2019-04-11T19:38:03.293Z,48.38
2019-04-11T19:40:32.531Z,48.88
2019-04-11T19:43:01.769Z,49.20
2019-04-11T19:45:31.000Z,49.75
2019-04-11T19:48:00.242Z,49.70
2019-04-11T19:50:29.831Z,50.04
2019-04-11T19:53:02.606Z,50.40
2019-04-11T19:55:53.194Z,50.77
2019-04-11T19:58:24.811Z,51.14
2019-04-11T20:00:54.051Z,51.14
2019-04-11T20:03:24.236Z,51.35
2019-04-11T20:05:52.531Z,52.03
2019-04-11T20:08:21.773Z,52.03
2019-04-11T20:10:51.036Z,52.15
2019-04-11T20:13:20.207Z,52.26
2019-04-11T20:15:50.664Z,52.42
2019-04-11T20:18:22.132Z,53.40
2019-04-11T20:20:48.659Z,59.01
2019-04-11T20:23:17.959Z,57.36
2019-04-11T20:25:49.688Z,53.39
2019-04-11T20:28:16.463Z,52.98
2019-04-11T20:30:45.664Z,53.47
2019-04-11T20:33:26.338Z,51.96
2019-04-11T20:35:44.169Z,51.86
2019-04-11T20:38:15.889Z,52.17
2019-04-11T20:40:42.678Z,52.82
2019-04-11T20:43:11.941Z,53.13
2019-04-11T20:45:41.509Z,53.43
2019-04-11T20:48:10.745Z,53.80
2019-04-11T20:50:39.963Z,54.35
2019-04-11T20:53:13.107Z,54.88
2019-04-11T20:55:39.360Z,54.88
2019-04-11T20:58:09.910Z,55.33
2019-04-11T21:00:49.194Z,55.54
2019-04-11T21:03:06.503Z,55.57
2019-04-11T21:05:35.723Z,56.07
2019-04-11T21:08:04.986Z,56.35
2019-04-11T21:10:34.594Z,56.35
2019-04-11T21:13:06.869Z,56.31
2019-04-11T21:15:32.784Z,56.25
2019-04-11T21:18:01.999Z,56.25
2019-04-11T21:20:31.279Z,56.38
2019-04-11T21:23:00.503Z,56.45
2019-04-11T21:25:29.711Z,56.64
2019-04-11T21:27:59.744Z,56.22
2019-04-11T21:30:30.337Z,56.44
2019-04-11T21:32:57.506Z,56.67
2019-04-11T21:35:26.700Z,57.06
2019-04-11T21:37:57.898Z,57.21
2019-04-11T21:40:25.158Z,57.36
2019-04-11T21:42:54.392Z,57.21
2019-04-11T21:45:23.672Z,57.36
2019-04-11T21:47:53.007Z,57.49
2019-04-11T21:50:22.199Z,57.58
2019-04-11T21:52:51.416Z,57.75
2019-04-11T21:55:20.677Z,57.57
2019-04-11T21:57:49.900Z,57.71
2019-04-11T22:00:24.656Z,57.87
2019-04-11T22:02:54.385Z,57.99
2019-04-11T22:05:23.084Z,58.30
2019-04-11T22:07:52.286Z,58.50
2019-04-11T22:10:21.536Z,58.30
2019-04-11T22:12:50.730Z,58.31
2019-04-11T22:15:19.968Z,58.49
2019-04-11T22:17:49.216Z,58.69
2019-04-11T22:20:18.543Z,58.87
2019-04-11T22:22:47.746Z,58.79
2019-04-11T22:25:16.952Z,58.87
2019-04-11T22:27:46.194Z,58.90
2019-04-11T22:30:15.432Z,58.76
2019-04-11T22:32:44.629Z,58.81
2019-04-11T22:35:13.892Z,58.96
2019-04-11T22:37:43.118Z,59.09
2019-04-11T22:40:12.511Z,59.25
2019-04-11T22:42:41.752Z,59.34
2019-04-11T22:45:11.008Z,59.56
2019-04-11T22:47:40.289Z,59.70
2019-04-11T22:50:10.647Z,59.70
2019-04-11T22:52:39.875Z,59.70
2019-04-11T22:55:10.976Z,59.71
2019-04-11T22:57:37.490Z,59.63
2019-04-11T23:00:06.926Z,59.81
2019-04-11T23:02:47.402Z,59.98
2019-04-11T23:05:17.424Z,60.16
2019-04-11T23:07:45.905Z,60.19
2019-04-11T23:10:17.098Z,60.40
2019-04-11T23:12:45.749Z,60.50
2019-04-11T23:15:15.081Z,60.14
2019-04-11T23:17:44.098Z,60.33
2019-04-11T23:20:11.924Z,60.35
2019-04-11T23:22:42.771Z,60.53
2019-04-11T23:25:10.150Z,60.62
2019-04-11T23:27:39.364Z,60.83
2019-04-11T23:30:08.620Z,60.92
2019-04-11T23:32:37.884Z,60.83
2019-04-11T23:35:07.080Z,61.03
2019-04-11T23:37:51.107Z,61.05
2019-04-11T23:40:21.002Z,60.88
2019-04-11T23:42:50.137Z,61.19
2019-04-11T23:45:18.838Z,61.16
2019-04-11T23:47:47.698Z,61.13
2019-04-11T23:50:16.902Z,61.24
2019-04-11T23:52:46.162Z,61.39
2019-04-11T23:55:15.430Z,61.59
2019-04-11T23:57:44.666Z,61.50
